Time;durP1;ratioP1;P1;durP2;ratioP2;P2;SDS_P1;SDS_P2;PMS_P1;PMS_P2;Temp;Humidity;BMP_temperature;BMP_pressure;BME280_temperature;BME280_humidity;BME280_pressure;Samples;Min_cycle;Max_cycle;Signal;HPM_P1;HPM_P2
2022/05/17 00:01:09;;;;;;;9.97;8.40;;;16.90;99.90;;;;;;5028321;28;20177;-69
2022/05/17 00:03:35;;;;;;;14.03;7.93;;;16.90;99.90;;;;;;5027794;28;21141;-69
2022/05/17 00:06:01;;;;;;;11.23;8.30;;;16.80;99.90;;;;;;5027783;28;20612;-68
2022/05/17 00:08:26;;;;;;;11.80;8.13;;;17.00;99.90;;;;;;5028379;28;20631;-68
2022/05/17 00:10:52;;;;;;;15.03;8.70;;;16.80;99.90;;;;;;5028461;28;20165;-66
2022/05/17 00:13:18;;;;;;;10.47;8.27;;;16.70;99.90;;;;;;5029423;28;20209;-69
2022/05/17 00:15:46;;;;;;;9.90;7.57;;;16.70;99.90;;;;;;5027861;28;20666;-69
2022/05/17 00:18:14;;;;;;;9.60;7.77;;;16.70;99.90;;;;;;5028533;28;20328;-69
2022/05/17 00:20:41;;;;;;;9.67;7.73;;;16.70;99.90;;;;;;5028989;28;20428;-71
2022/05/17 00:23:07;;;;;;;9.83;7.70;;;16.70;99.90;;;;;;5026242;28;20512;-70
2022/05/17 00:25:34;;;;;;;8.80;7.20;;;16.60;99.90;;;;;;5038161;28;20454;-71
2022/05/17 00:27:59;;;;;;;14.33;8.70;;;17.20;99.90;;;;;;5014653;28;20910;-71
2022/05/17 00:30:25;;;;;;;14.70;8.70;;;16.50;99.90;;;;;;5028753;28;20443;-71
2022/05/17 00:32:51;;;;;;;10.10;8.13;;;16.50;99.90;;;;;;5024902;28;20177;-71
2022/05/17 00:35:16;;;;;;;17.23;8.20;;;16.40;99.90;;;;;;5029124;28;20174;-71
2022/05/17 00:37:42;;;;;;;8.77;7.60;;;16.40;99.90;;;;;;5028248;28;20221;-71
2022/05/17 00:40:09;;;;;;;17.43;7.40;;;16.30;99.90;;;;;;5028365;28;20316;-71
2022/05/17 00:42:35;;;;;;;9.23;7.60;;;16.20;99.90;;;;;;5028014;28;20166;-71
2022/05/17 00:45:00;;;;;;;8.70;6.60;;;16.20;99.90;;;;;;5028836;28;20957;-71
2022/05/17 00:47:30;;;;;;;11.77;7.20;;;16.00;99.90;;;;;;5028389;28;20332;-71
2022/05/17 00:50:09;;;;;;;10.17;6.80;;;16.00;99.90;;;;;;5028972;28;20240;-71
2022/05/17 00:52:45;;;;;;;12.17;7.13;;;15.90;99.90;;;;;;5027399;28;20415;-70
2022/05/17 00:55:24;;;;;;;7.80;6.20;;;15.90;99.90;;;;;;5028336;28;20404;-71
2022/05/17 00:57:56;;;;;;;9.53;7.10;;;15.90;99.90;;;;;;5028817;28;20941;-71
2022/05/17 01:00:24;;;;;;;9.57;6.97;;;15.90;99.90;;;;;;5027234;28;20417;-71
2022/05/17 01:02:59;;;;;;;9.40;6.87;;;15.80;99.90;;;;;;5025124;28;20969;-71
2022/05/17 01:05:26;;;;;;;8.00;6.63;;;15.80;99.90;;;;;;5028458;28;20548;-71
2022/05/17 01:07:54;;;;;;;8.97;7.00;;;15.70;99.90;;;;;;5027846;28;20436;-71
2022/05/17 01:10:21;;;;;;;11.83;6.80;;;15.60;99.90;;;;;;5027080;28;20449;-71
2022/05/17 01:14:57;;;;;;;8.97;6.93;;;15.60;99.90;;;;;;5026591;28;20822;-71
2022/05/17 01:15:34;;;;;;;10.80;7.07;;;15.60;99.90;;;;;;5028280;28;20779;-70
2022/05/17 01:18:01;;;;;;;8.00;6.90;;;15.60;99.90;;;;;;5027673;28;20922;-71
2022/05/17 01:20:27;;;;;;;7.73;6.87;;;15.60;99.90;;;;;;5026375;28;20443;-71
2022/05/17 01:22:52;;;;;;;7.23;6.47;;;15.60;99.90;;;;;;5026956;28;20443;-71
2022/05/17 01:25:18;;;;;;;9.90;7.43;;;15.60;99.90;;;;;;5027647;28;20202;-71
2022/05/17 01:27:48;;;;;;;9.90;7.20;;;15.50;99.90;;;;;;5027603;28;20190;-71
2022/05/17 01:30:21;;;;;;;9.83;7.50;;;15.50;99.90;;;;;;5027945;28;20742;-71
2022/05/17 01:32:47;;;;;;;9.90;7.20;;;15.50;99.90;;;;;;5025557;28;20415;-71
2022/05/17 01:35:13;;;;;;;7.70;6.87;;;15.50;99.90;;;;;;5028252;28;20413;-71
2022/05/17 01:37:39;;;;;;;11.83;7.30;;;15.50;99.90;;;;;;5025570;28;20444;-71
2022/05/17 01:40:05;;;;;;;8.70;6.40;;;15.50;99.90;;;;;;5027417;28;20417;-71
2022/05/17 01:42:31;;;;;;;10.83;6.60;;;15.50;99.90;;;;;;5026387;28;20204;-70
2022/05/17 01:44:56;;;;;;;9.60;7.10;;;15.50;99.90;;;;;;5027720;28;20478;-71
2022/05/17 01:47:22;;;;;;;11.03;6.90;;;15.50;99.90;;;;;;5027321;28;20193;-71
2022/05/17 01:49:47;;;;;;;8.40;6.90;;;15.40;99.90;;;;;;5026232;28;20300;-71
2022/05/17 01:52:13;;;;;;;10.37;6.77;;;15.40;99.90;;;;;;5026276;28;20276;-71
2022/05/17 01:54:38;;;;;;;9.40;7.07;;;15.40;99.90;;;;;;5025427;28;20190;-70
2022/05/17 01:57:05;;;;;;;10.47;6.63;;;15.40;99.90;;;;;;5025624;28;20253;-71
2022/05/17 01:59:31;;;;;;;8.97;7.00;;;15.50;99.90;;;;;;5026589;28;20197;-71
2022/05/17 02:01:57;;;;;;;7.73;6.43;;;15.50;99.90;;;;;;5025777;28;20408;-71
2022/05/17 02:04:22;;;;;;;10.73;6.60;;;15.50;99.90;;;;;;5024321;28;20462;-70
2022/05/17 02:06:48;;;;;;;8.43;6.30;;;15.50;99.90;;;;;;5023684;28;20720;-70
2022/05/17 02:09:13;;;;;;;10.53;7.27;;;15.50;99.90;;;;;;5025499;28;20184;-71
2022/05/17 02:11:40;;;;;;;10.30;7.20;;;15.40;99.90;;;;;;5023693;28;20193;-71
2022/05/17 02:14:06;;;;;;;9.07;6.77;;;15.30;99.90;;;;;;5027907;28;20517;-71
2022/05/17 02:16:37;;;;;;;9.20;6.97;;;15.30;99.90;;;;;;5025643;28;20436;-71
2022/05/17 02:19:04;;;;;;;9.57;7.33;;;15.20;99.90;;;;;;5027601;28;20507;-71
2022/05/17 02:21:29;;;;;;;9.17;7.63;;;15.80;99.90;;;;;;5026482;28;20418;-71
2022/05/17 02:23:55;;;;;;;10.70;7.23;;;15.00;99.90;;;;;;5026017;28;20425;-70
2022/05/17 02:26:20;;;;;;;9.50;6.90;;;15.00;99.90;;;;;;5026399;28;20206;-71
2022/05/17 02:28:46;;;;;;;8.40;6.60;;;15.00;99.90;;;;;;5028054;28;20169;-70
2022/05/17 02:31:16;;;;;;;11.87;6.50;;;15.00;99.90;;;;;;5026326;28;20253;-71
2022/05/17 02:33:41;;;;;;;7.20;6.30;;;15.00;99.90;;;;;;5026972;28;20233;-70
2022/05/17 02:36:08;;;;;;;8.40;6.10;;;14.90;99.90;;;;;;5030346;28;20449;-70
2022/05/17 02:38:33;;;;;;;8.67;6.80;;;14.90;99.90;;;;;;5031041;28;20200;-71
2022/05/17 02:40:58;;;;;;;12.93;7.47;;;14.80;99.90;;;;;;5029685;28;20409;-71
2022/05/17 02:43:24;;;;;;;14.43;7.10;;;14.80;99.90;;;;;;5030228;28;20209;-72
2022/05/17 02:45:51;;;;;;;10.73;6.70;;;14.80;99.90;;;;;;5029764;28;20293;-71
2022/05/17 02:48:16;;;;;;;7.63;6.67;;;14.80;99.90;;;;;;5029995;28;20574;-71
2022/05/17 02:50:42;;;;;;;12.37;6.90;;;14.70;99.90;;;;;;5029039;28;20408;-71
2022/05/17 02:53:07;;;;;;;12.90;6.30;;;14.70;99.90;;;;;;5028347;28;20170;-71
2022/05/17 02:55:33;;;;;;;8.43;6.93;;;14.60;99.90;;;;;;5029409;28;20534;-71
2022/05/17 02:57:59;;;;;;;7.53;6.83;;;14.70;99.90;;;;;;5030537;28;20460;-71
2022/05/17 03:00:26;;;;;;;7.37;6.33;;;14.70;99.90;;;;;;5031182;28;20237;-71
2022/05/17 03:02:52;;;;;;;7.70;6.23;;;14.60;99.90;;;;;;5029385;28;20178;-70
2022/05/17 03:05:18;;;;;;;7.30;5.97;;;14.60;99.90;;;;;;5030995;28;20515;-71
2022/05/17 03:07:43;;;;;;;9.73;6.60;;;14.60;99.90;;;;;;5022410;28;20538;-71
2022/05/17 03:10:10;;;;;;;8.23;6.50;;;14.60;99.90;;;;;;5030664;28;20214;-71
2022/05/17 03:12:37;;;;;;;8.43;6.10;;;14.50;99.90;;;;;;5027819;28;20170;-71
2022/05/17 03:15:04;;;;;;;9.00;6.73;;;14.50;99.90;;;;;;5030980;28;20766;-71
2022/05/17 03:17:29;;;;;;;8.07;6.40;;;14.50;99.90;;;;;;5029669;28;20432;-71
2022/05/17 03:19:55;;;;;;;8.40;7.10;;;14.50;99.90;;;;;;5029412;28;20408;-71
2022/05/17 03:22:21;;;;;;;7.70;6.90;;;14.50;99.90;;;;;;5029016;28;20184;-71
2022/05/17 03:24:47;;;;;;;10.13;6.63;;;14.50;99.90;;;;;;5028555;28;20559;-71
2022/05/17 03:27:17;;;;;;;9.03;6.80;;;14.50;99.90;;;;;;5029937;28;20519;-71
2022/05/17 03:29:43;;;;;;;11.17;7.10;;;14.50;99.90;;;;;;5030701;28;20166;-71
2022/05/17 03:32:09;;;;;;;8.83;6.50;;;14.50;99.90;;;;;;5027774;28;20431;-71
2022/05/17 03:34:35;;;;;;;8.43;6.50;;;14.40;99.90;;;;;;5030341;28;20172;-71
2022/05/17 03:37:00;;;;;;;12.93;7.00;;;14.30;99.90;;;;;;5029382;28;20436;-71
2022/05/17 03:39:26;;;;;;;13.23;6.87;;;14.30;99.90;;;;;;5028728;28;20201;-71
2022/05/17 03:41:51;;;;;;;11.63;6.60;;;14.30;99.90;;;;;;5028591;28;20178;-69
2022/05/17 03:44:17;;;;;;;14.30;7.60;;;14.20;99.90;;;;;;5029698;28;20174;-71
2022/05/17 03:46:43;;;;;;;10.80;7.97;;;14.20;99.90;;;;;;5029298;28;20305;-70
2022/05/17 03:49:09;;;;;;;8.63;6.70;;;14.20;99.90;;;;;;5028360;28;20178;-71
2022/05/17 03:51:34;;;;;;;8.87;6.90;;;14.20;99.90;;;;;;5028602;28;20693;-71
2022/05/17 03:54:00;;;;;;;9.93;7.07;;;14.20;99.90;;;;;;5028465;28;20215;-71
2022/05/17 03:56:25;;;;;;;8.87;6.57;;;14.30;99.90;;;;;;5029087;28;20257;-71
2022/05/17 03:58:51;;;;;;;9.20;6.33;;;14.00;99.90;;;;;;5029775;28;20166;-71
2022/05/17 04:01:16;;;;;;;8.07;6.23;;;14.30;99.90;;;;;;5029221;28;20331;-71
2022/05/17 04:03:43;;;;;;;8.43;6.70;;;14.40;99.90;;;;;;5029170;28;20166;-71
2022/05/17 04:06:08;;;;;;;8.20;6.90;;;14.40;99.90;;;;;;5028928;28;20182;-71
2022/05/17 04:08:36;;;;;;;9.67;6.60;;;14.40;99.90;;;;;;5029596;28;20432;-71
2022/05/17 04:11:03;;;;;;;8.87;6.87;;;14.50;99.90;;;;;;5026612;28;20644;-69
2022/05/17 04:13:29;;;;;;;8.80;6.60;;;14.50;99.90;;;;;;5030225;28;20416;-71
2022/05/17 04:15:56;;;;;;;9.60;6.80;;;14.60;99.90;;;;;;5028196;28;20459;-71
2022/05/17 04:18:22;;;;;;;12.13;6.50;;;14.60;99.90;;;;;;5028530;28;20531;-71
2022/05/17 04:20:47;;;;;;;9.00;7.00;;;14.70;99.90;;;;;;5029286;28;20916;-71
2022/05/17 04:23:13;;;;;;;7.57;6.20;;;14.80;99.90;;;;;;5028482;28;20228;-71
2022/05/17 04:25:38;;;;;;;8.07;6.60;;;14.70;99.90;;;;;;5029138;28;20202;-71
2022/05/17 04:28:04;;;;;;;8.77;6.57;;;14.80;99.90;;;;;;5029110;28;20205;-71
2022/05/17 04:30:30;;;;;;;8.50;7.07;;;14.80;99.90;;;;;;5029218;28;20323;-71
2022/05/17 04:32:56;;;;;;;7.60;6.80;;;14.90;99.90;;;;;;5026539;28;20201;-70
2022/05/17 04:35:22;;;;;;;9.07;7.20;;;15.00;99.90;;;;;;5024252;28;20432;-71
2022/05/17 04:37:47;;;;;;;9.20;7.17;;;15.00;99.90;;;;;;5028755;28;20189;-71
2022/05/17 04:40:14;;;;;;;10.20;7.90;;;15.10;99.90;;;;;;5028990;28;20204;-71
2022/05/17 04:42:41;;;;;;;7.77;6.97;;;15.20;99.90;;;;;;5026303;28;20226;-71
2022/05/17 04:45:09;;;;;;;7.80;6.97;;;15.30;99.90;;;;;;5029123;28;20460;-71
2022/05/17 04:47:38;;;;;;;9.90;7.50;;;15.40;99.90;;;;;;5028061;28;20423;-71
2022/05/17 04:50:04;;;;;;;8.50;7.60;;;15.40;99.90;;;;;;5029163;28;20712;-71
2022/05/17 04:52:30;;;;;;;10.33;7.60;;;;;;;;;;5027827;28;20412;-71
2022/05/17 04:54:55;;;;;;;9.87;8.17;;;15.60;99.90;;;;;;5027898;28;20765;-71
2022/05/17 04:57:22;;;;;;;9.70;7.83;;;15.70;99.90;;;;;;5028482;28;20686;-71
2022/05/17 04:59:47;;;;;;;10.80;7.73;;;15.80;99.90;;;;;;5028975;28;20184;-71
2022/05/17 05:02:13;;;;;;;13.17;8.43;;;15.80;99.90;;;;;;5027420;28;21001;-71
2022/05/17 05:04:38;;;;;;;8.83;6.70;;;15.90;99.90;;;;;;5028812;28;20170;-70
2022/05/17 05:07:07;;;;;;;10.50;7.60;;;16.00;99.90;;;;;;5020854;28;20248;-71
2022/05/17 05:09:33;;;;;;;14.43;7.80;;;16.00;99.90;;;;;;5028204;28;20178;-71
2022/05/17 05:11:59;;;;;;;13.03;8.83;;;16.10;99.90;;;;;;5026934;28;20416;-70
2022/05/17 05:14:25;;;;;;;9.33;7.50;;;16.20;99.90;;;;;;5029102;28;20895;-71
2022/05/17 05:16:51;;;;;;;13.70;7.77;;;16.20;99.90;;;;;;5027563;28;20554;-71
2022/05/17 05:19:16;;;;;;;11.03;8.93;;;16.40;99.90;;;;;;5028346;28;20260;-70
2022/05/17 05:21:42;;;;;;;13.70;9.10;;;16.40;99.90;;;;;;5027267;28;20169;-71
2022/05/17 05:24:10;;;;;;;13.43;9.70;;;16.50;99.90;;;;;;5028488;28;20252;-71
2022/05/17 05:26:37;;;;;;;11.23;9.80;;;16.50;99.90;;;;;;5027496;28;20460;-71
2022/05/17 05:29:03;;;;;;;13.97;9.63;;;16.60;99.90;;;;;;5028503;28;20401;-71
2022/05/17 05:31:28;;;;;;;10.57;8.97;;;16.50;99.90;;;;;;5025816;28;20599;-71
2022/05/17 05:33:54;;;;;;;11.10;9.70;;;16.60;99.90;;;;;;5026821;28;21000;-71
2022/05/17 05:36:19;;;;;;;14.47;10.10;;;16.70;99.90;;;;;;5027788;28;20166;-71
2022/05/17 05:38:45;;;;;;;14.70;9.77;;;16.70;99.90;;;;;;5028193;28;20177;-71
2022/05/17 05:41:14;;;;;;;12.00;9.73;;;16.80;99.90;;;;;;5026929;28;20259;-71
2022/05/17 05:43:40;;;;;;;11.93;10.10;;;16.80;99.90;;;;;;5027558;28;20186;-71
2022/05/17 05:46:06;;;;;;;12.33;9.90;;;16.80;99.90;;;;;;5025905;28;20464;-71
2022/05/17 05:48:32;;;;;;;13.10;10.30;;;17.00;99.90;;;;;;5028036;28;20425;-72
2022/05/17 05:50:57;;;;;;;14.03;10.10;;;17.10;99.90;;;;;;5027061;28;20408;-70
2022/05/17 05:53:23;;;;;;;15.60;9.70;;;17.30;99.90;;;;;;5028190;28;20170;-70
2022/05/17 05:55:50;;;;;;;13.93;10.40;;;17.30;99.90;;;;;;5027744;28;20181;-71
2022/05/17 05:58:17;;;;;;;13.33;10.70;;;17.40;99.90;;;;;;5027638;28;20228;-71
2022/05/17 06:00:43;;;;;;;14.20;10.60;;;17.50;99.90;;;;;;5027829;28;20404;-71
2022/05/17 06:03:09;;;;;;;16.80;10.93;;;17.60;99.90;;;;;;5026598;28;20736;-71
2022/05/17 06:05:36;;;;;;;15.23;10.30;;;17.70;99.90;;;;;;5027588;28;20691;-71
2022/05/17 06:08:02;;;;;;;20.43;10.27;;;17.80;99.90;;;;;;5030263;28;20556;-71
2022/05/17 06:10:28;;;;;;;16.20;10.13;;;17.80;99.90;;;;;;5032051;28;20423;-71
2022/05/17 06:12:54;;;;;;;14.00;9.80;;;18.10;99.90;;;;;;5029404;28;20944;-71
2022/05/17 06:15:19;;;;;;;13.82;10.02;;;18.40;99.90;;;;;;5031168;28;20414;-71
2022/05/17 06:17:45;;;;;;;14.90;9.97;;;18.40;99.90;;;;;;5031132;28;20520;-71
2022/05/17 06:20:12;;;;;;;15.83;11.10;;;18.50;99.90;;;;;;5030500;28;20529;-71
2022/05/17 06:22:38;;;;;;;14.37;10.70;;;18.60;99.90;;;;;;5028127;28;20256;-70
2022/05/17 06:25:06;;;;;;;15.83;9.87;;;18.70;99.90;;;;;;5030134;28;20867;-71
2022/05/17 06:27:31;;;;;;;13.40;9.97;;;18.80;99.90;;;;;;5031060;28;20432;-71
2022/05/17 06:29:57;;;;;;;18.03;10.70;;;19.00;99.90;;;;;;5029785;28;20482;-69
2022/05/17 06:32:22;;;;;;;15.93;10.00;;;19.20;99.90;;;;;;5023682;28;20174;-69
2022/05/17 06:34:48;;;;;;;19.40;11.40;;;19.30;99.90;;;;;;5030116;28;20217;-69
2022/05/17 06:37:13;;;;;;;13.77;10.27;;;19.30;99.90;;;;;;5030957;28;20611;-69
2022/05/17 06:39:39;;;;;;;14.43;10.83;;;19.30;99.90;;;;;;5021502;28;20174;-69
2022/05/17 06:42:06;;;;;;;14.57;9.77;;;19.50;99.90;;;;;;5012708;28;20306;-70
2022/05/17 06:44:32;;;;;;;17.47;10.87;;;19.60;99.90;;;;;;5043632;28;20882;-69
2022/05/17 06:46:58;;;;;;;16.57;10.27;;;19.70;99.90;;;;;;5040716;28;20810;-70
2022/05/17 06:49:25;;;;;;;20.43;10.97;;;19.80;99.90;;;;;;5050961;28;20992;-70
2022/05/17 06:51:51;;;;;;;33.67;10.70;;;19.90;99.90;;;;;;5029790;28;20423;-69
2022/05/17 06:54:16;;;;;;;13.20;10.53;;;19.90;99.90;;;;;;5044909;28;20411;-70
2022/05/17 06:56:42;;;;;;;15.40;10.10;;;19.90;99.90;;;;;;5050142;28;20438;-69
2022/05/17 06:59:08;;;;;;;11.13;9.40;;;20.10;99.90;;;;;;5049409;28;20173;-69
2022/05/17 07:01:34;;;;;;;15.97;10.00;;;20.30;99.90;;;;;;5049170;28;20191;-69
2022/05/17 07:03:59;;;;;;;15.30;10.23;;;20.60;99.90;;;;;;5047721;28;20423;-69
2022/05/17 07:06:26;;;;;;;16.53;9.90;;;20.80;99.90;;;;;;5038238;28;20221;-69
2022/05/17 07:08:51;;;;;;;17.40;9.97;;;20.80;99.90;;;;;;5029206;28;20170;-70
2022/05/17 07:14:01;;;;;;;17.00;10.27;;;21.80;99.90;;;;;;5028938;28;20239;-69
2022/05/17 07:16:27;;;;;;;16.93;9.73;;;21.50;96.10;;;;;;5027656;28;20412;-69
2022/05/17 07:18:52;;;;;;;15.03;9.60;;;21.60;98.70;;;;;;5028900;28;20170;-70
2022/05/17 07:21:18;;;;;;;13.53;9.50;;;21.90;98.60;;;;;;5025257;28;20172;-70
2022/05/17 07:23:43;;;;;;;13.63;9.10;;;22.20;96.20;;;;;;5040840;28;20175;-69
2022/05/17 07:26:11;;;;;;;16.10;9.50;;;22.40;93.00;;;;;;5049541;28;20253;-70
2022/05/17 07:28:45;;;;;;;17.53;9.90;;;22.40;88.40;;;;;;5050175;28;20560;-68
2022/05/17 07:31:11;;;;;;;11.27;9.03;;;22.40;89.00;;;;;;5047614;28;20411;-70
2022/05/17 07:33:38;;;;;;;12.77;9.30;;;22.80;90.60;;;;;;5049768;28;20410;-70
2022/05/17 07:36:05;;;;;;;14.63;9.03;;;23.10;83.40;;;;;;5048652;28;20733;-70
2022/05/17 07:38:31;;;;;;;10.93;8.00;;;23.30;76.70;;;;;;5049897;28;20427;-70
2022/05/17 07:40:57;;;;;;;13.00;8.80;;;23.50;74.20;;;;;;5049134;28;20905;-68
2022/05/17 07:43:23;;;;;;;13.67;7.60;;;23.70;63.30;;;;;;5036414;28;20182;-70
2022/05/17 07:45:52;;;;;;;16.33;7.30;;;23.90;57.20;;;;;;5027810;28;20295;-70
2022/05/17 07:48:19;;;;;;;10.27;7.80;;;24.20;49.90;;;;;;5027515;28;20511;-69
2022/05/17 07:50:46;;;;;;;10.13;7.73;;;24.30;50.10;;;;;;5021614;28;20413;-70
2022/05/17 07:53:14;;;;;;;13.27;7.60;;;24.30;50.00;;;;;;5041148;28;20880;-70
2022/05/17 07:55:41;;;;;;;13.30;7.70;;;24.50;50.30;;;;;;5049446;28;20411;-70
2022/05/17 07:58:07;;;;;;;11.83;7.40;;;24.60;50.30;;;;;;5049479;28;20427;-69
2022/05/17 08:00:33;;;;;;;10.73;6.67;;;24.90;50.40;;;;;;5047758;28;20411;-70
2022/05/17 08:02:59;;;;;;;16.80;6.93;;;25.10;50.60;;;;;;5048079;28;20442;-69
2022/05/17 08:05:26;;;;;;;12.03;5.80;;;25.30;50.40;;;;;;5049138;28;20665;-69
2022/05/17 08:07:52;;;;;;;14.80;6.03;;;25.60;37.00;;;;;;5049577;28;20430;-70
2022/05/17 08:10:18;;;;;;;10.57;7.00;;;25.90;30.40;;;;;;5049093;28;20406;-70
2022/05/17 08:12:44;;;;;;;11.33;5.90;;;26.00;30.30;;;;;;5048653;28;20248;-69
2022/05/17 08:15:10;;;;;;;9.03;5.93;;;26.30;29.40;;;;;;5049136;28;20486;-70
2022/05/17 08:17:36;;;;;;;9.80;6.90;;;26.70;28.50;;;;;;5046931;28;20197;-70
2022/05/17 08:20:07;;;;;;;13.33;6.60;;;26.60;24.70;;;;;;5042532;28;20424;-70
2022/05/17 08:22:33;;;;;;;8.20;6.20;;;26.70;22.80;;;;;;5032708;28;20161;-70
2022/05/17 08:27:44;;;;;;;6.47;5.40;;;27.30;22.80;;;;;;5049143;28;20199;-70
2022/05/17 08:30:14;;;;;;;8.60;5.70;;;27.70;17.30;;;;;;5047489;28;20439;-70
2022/05/17 08:33:17;;;;;;;9.17;5.00;;;28.20;13.00;;;;;;5028818;28;20264;-69
2022/05/17 08:35:49;;;;;;;7.60;4.23;;;28.90;11.70;;;;;;5025057;28;20212;-69
2022/05/17 08:38:16;;;;;;;8.27;4.60;;;29.50;2.70;;;;;;5028955;28;20254;-70
2022/05/17 08:41:11;;;;;;;8.80;4.50;;;29.60;1.00;;;;;;5028585;28;20169;-70
2022/05/17 08:43:42;;;;;;;5.63;4.00;;;30.00;1.00;;;;;;5027977;28;20181;-70
2022/05/17 08:46:11;;;;;;;6.67;3.73;;;30.40;1.00;;;;;;5027522;28;20634;-70
2022/05/17 08:48:46;;;;;;;8.55;4.28;;;31.10;1.00;;;;;;5027583;28;20620;-70
2022/05/17 08:51:16;;;;;;;6.35;3.95;;;31.70;1.00;;;;;;5023789;28;20199;-69
2022/05/17 08:53:43;;;;;;;8.23;3.80;;;32.00;1.00;;;;;;5038814;28;20337;-70
2022/05/17 08:56:10;;;;;;;7.70;3.47;;;32.40;1.00;;;;;;5048431;28;20191;-70
2022/05/17 08:58:39;;;;;;;4.90;3.40;;;32.30;1.00;;;;;;5048667;28;20605;-70
2022/05/17 09:01:13;;;;;;;6.57;3.60;;;32.80;1.00;;;;;;5047383;28;20611;-70
2022/05/17 09:04:00;;;;;;;10.90;3.83;;;33.50;1.00;;;;;;5046797;28;20176;-70
2022/05/17 09:06:38;;;;;;;5.93;3.38;;;34.40;1.00;;;;;;5042148;28;20275;-70
2022/05/17 09:09:09;;;;;;;7.53;3.08;;;35.10;1.00;;;;;;5020870;28;20180;-71
2022/05/17 09:11:52;;;;;;;7.40;2.80;;;35.30;1.00;;;;;;5026578;28;20469;-70
2022/05/17 09:14:22;;;;;;;5.32;2.00;;;35.60;1.00;;;;;;5027847;28;20567;-71
2022/05/17 09:16:57;;;;;;;3.70;1.80;;;35.50;1.00;;;;;;5027829;28;20203;-69
2022/05/17 09:19:23;;;;;;;3.80;2.45;;;35.60;1.00;;;;;;5027849;28;20343;-71
2022/05/17 09:21:49;;;;;;;6.75;2.97;;;35.90;1.00;;;;;;5026963;28;20669;-71
2022/05/17 09:24:18;;;;;;;4.85;2.58;;;36.70;1.00;;;;;;5041831;28;20358;-71
2022/05/17 09:26:52;;;;;;;5.07;2.17;;;37.20;1.00;;;;;;5047723;28;20258;-71
2022/05/17 09:29:33;;;;;;;7.85;2.13;;;37.50;1.00;;;;;;5048327;28;20735;-71
2022/05/17 09:32:07;;;;;;;4.25;1.92;;;37.70;1.00;;;;;;5046808;28;20503;-70
2022/05/17 09:34:36;;;;;;;4.38;2.13;;;37.50;1.00;;;;;;5047299;28;20479;-71
2022/05/17 09:37:22;;;;;;;4.53;2.10;;;37.80;1.00;;;;;;5047355;28;20449;-71
2022/05/17 09:39:50;;;;;;;7.78;2.08;;;38.40;1.00;;;;;;5047478;28;20287;-71
2022/05/17 09:42:29;;;;;;;6.03;2.20;;;39.00;1.00;;;;;;5039350;28;20177;-71
2022/05/17 09:44:56;;;;;;;5.45;2.13;;;39.20;1.00;;;;;;5025600;28;20191;-71
2022/05/17 09:47:50;;;;;;;4.80;2.47;;;39.00;1.00;;;;;;5027610;28;20197;-71
2022/05/17 09:53:07;;;;;;;3.72;2.10;;;38.50;1.00;;;;;;5027623;28;20173;-70
2022/05/17 09:55:34;;;;;;;6.10;2.42;;;38.60;1.00;;;;;;5027589;28;20165;-71
2022/05/17 09:58:06;;;;;;;7.10;2.67;;;39.10;1.00;;;;;;5024359;28;20190;-71
2022/05/17 10:00:43;;;;;;;5.25;2.60;;;39.30;1.00;;;;;;5026684;28;20635;-70
2022/05/17 10:03:15;;;;;;;5.50;2.58;;;39.50;1.00;;;;;;5026267;28;20335;-71
2022/05/17 10:05:40;;;;;;;5.55;2.75;;;39.60;1.00;;;;;;5026891;28;20989;-71
2022/05/17 10:08:38;;;;;;;5.63;2.60;;;39.70;1.00;;;;;;5026208;28;20216;-69
2022/05/17 10:11:27;;;;;;;9.68;2.65;;;39.80;1.00;;;;;;5024324;28;20356;-69
2022/05/17 10:14:04;;;;;;;5.32;2.72;;;39.80;1.00;;;;;;5027371;28;20182;-70
2022/05/17 10:16:45;;;;;;;5.72;2.38;;;40.00;1.00;;;;;;5026936;28;20196;-70
2022/05/17 10:19:31;;;;;;;5.47;2.42;;;40.10;1.00;;;;;;5027725;28;20170;-72
2022/05/17 10:22:09;;;;;;;3.67;2.03;;;40.60;1.00;;;;;;5024936;28;20220;-71
2022/05/17 10:25:04;;;;;;;5.43;2.15;;;40.90;1.00;;;;;;5044455;28;20207;-71
2022/05/17 10:27:34;;;;;;;5.32;2.38;;;40.50;1.00;;;;;;5045539;28;20235;-71
2022/05/17 10:30:11;;;;;;;3.25;2.00;;;40.60;1.00;;;;;;5046329;28;20263;-71
2022/05/17 10:33:02;;;;;;;4.15;2.20;;;40.80;1.00;;;;;;5032269;28;20248;-70
2022/05/17 10:35:38;;;;;;;3.17;1.90;;;40.60;1.00;;;;;;5027134;28;20302;-71
2022/05/17 10:38:18;;;;;;;3.50;2.00;;;40.50;1.00;;;;;;5027424;28;20350;-71
2022/05/17 10:40:46;;;;;;;2.97;1.63;;;41.10;1.00;;;;;;5026828;28;20180;-71
2022/05/17 10:43:29;;;;;;;4.30;1.70;;;41.20;1.00;;;;;;5023617;28;20173;-71
2022/05/17 10:46:18;;;;;;;2.40;1.27;;;41.80;1.00;;;;;;5007044;28;20198;-71
2022/05/17 10:49:02;;;;;;;3.13;1.70;;;41.70;1.00;;;;;;5007670;28;20505;-71
2022/05/17 10:51:59;;;;;;;4.20;1.80;;;41.90;1.00;;;;;;5021083;28;20169;-71
2022/05/17 10:54:43;;;;;;;3.67;1.67;;;41.80;1.00;;;;;;5039350;28;20169;-71
2022/05/17 10:57:39;;;;;;;3.53;1.40;;;41.60;1.00;;;;;;5050703;28;20659;-71
2022/05/17 11:00:19;;;;;;;3.70;1.90;;;41.30;1.00;;;;;;5049566;28;20654;-71
2022/05/17 11:03:16;;;;;;;2.95;1.60;;;42.10;1.00;;;;;;5049243;28;20259;-71
2022/05/17 11:06:16;;;;;;;3.78;1.83;;;42.50;1.00;;;;;;5050559;28;20250;-71
2022/05/17 11:09:12;;;;;;;7.22;2.00;;;42.60;1.00;;;;;;5038050;28;20236;-71
2022/05/17 11:12:04;;;;;;;4.28;2.00;;;43.10;1.00;;;;;;5029732;28;20214;-71
2022/05/17 11:14:43;;;;;;;2.65;1.70;;;43.10;1.00;;;;;;5030312;28;20165;-71
2022/05/17 11:17:14;;;;;;;5.60;1.83;;;43.30;1.00;;;;;;5029564;28;20200;-70
2022/05/17 11:19:46;;;;;;;2.75;1.80;;;43.70;1.00;;;;;;5028944;28;20267;-70
2022/05/17 11:22:25;;;;;;;4.35;2.20;;;43.80;1.00;;;;;;5029943;28;20328;-71
2022/05/17 11:25:29;;;;;;;3.20;1.75;;;43.40;1.00;;;;;;5049115;28;20169;-71
2022/05/17 11:27:54;;;;;;;3.40;1.90;;;42.80;1.00;;;;;;5050041;28;20188;-70
2022/05/17 11:30:50;;;;;;;4.88;2.08;;;42.50;1.00;;;;;;5051020;28;20370;-71
2022/05/17 11:33:29;;;;;;;3.83;2.00;;;42.40;1.00;;;;;;5048649;28;20271;-71
2022/05/17 11:36:01;;;;;;;4.40;1.95;;;42.60;1.00;;;;;;5047784;28;20623;-71
2022/05/17 11:38:32;;;;;;;5.40;2.35;;;42.50;1.00;;;;;;5049538;28;20203;-71
2022/05/17 11:41:00;;;;;;;3.78;2.13;;;42.00;1.00;;;;;;5049436;28;20169;-70
2022/05/17 11:43:50;;;;;;;3.95;2.08;;;41.70;1.00;;;;;;5028626;28;20183;-71
2022/05/17 11:46:24;;;;;;;3.80;2.30;;;42.30;1.00;;;;;;5022174;28;20584;-70
2022/05/17 11:48:57;;;;;;;4.35;2.42;;;42.70;1.00;;;;;;5030082;28;20177;-71
2022/05/17 11:51:24;;;;;;;4.72;1.98;;;42.90;1.00;;;;;;5027438;28;20290;-71
2022/05/17 11:53:52;;;;;;;3.33;1.90;;;42.90;1.00;;;;;;5040797;28;20181;-71
2022/05/17 11:56:32;;;;;;;4.80;1.83;;;42.80;1.00;;;;;;5049512;28;20647;-70
2022/05/17 11:59:12;;;;;;;5.78;1.80;;;42.70;1.00;;;;;;5049804;28;20175;-71
2022/05/17 12:01:37;;;;;;;2.83;1.67;;;42.30;1.00;;;;;;5047546;28;20250;-71
2022/05/17 12:04:21;;;;;;;5.63;2.17;;;42.50;1.00;;;;;;5047863;28;20650;-71
2022/05/17 12:06:53;;;;;;;4.78;2.00;;;42.10;1.00;;;;;;5047839;28;20446;-71
2022/05/17 12:09:29;;;;;;;4.25;1.98;;;42.00;1.00;;;;;;5049777;28;20164;-71
2022/05/17 12:12:18;;;;;;;5.70;2.10;;;42.10;1.00;;;;;;5048452;28;20168;-71
2022/05/17 12:15:14;;;;;;;2.63;1.70;;;42.70;1.00;;;;;;5039833;28;20180;-70
2022/05/17 12:17:44;;;;;;;3.03;1.95;;;43.30;1.00;;;;;;5048251;28;20196;-71
2022/05/17 12:20:25;;;;;;;4.53;2.00;;;43.80;1.00;;;;;;5039916;28;20678;-71
2022/05/17 12:23:02;;;;;;;4.45;1.60;;;44.00;1.00;;;;;;5037824;28;20174;-71
2022/05/17 12:25:43;;;;;;;5.20;1.60;;;43.90;1.00;;;;;;5048979;28;20193;-71
2022/05/17 12:28:21;;;;;;;4.80;1.70;;;44.00;1.00;;;;;;5048898;28;20246;-71
2022/05/17 12:30:59;;;;;;;3.00;1.88;;;44.30;1.00;;;;;;5047834;28;20619;-71
2022/05/17 12:33:39;;;;;;;3.33;1.70;;;44.00;1.00;;;;;;5027673;28;20173;-71
2022/05/17 12:36:27;;;;;;;5.25;1.90;;;43.90;1.00;;;;;;5009039;28;20675;-71
2022/05/17 12:44:34;;;;;;;5.57;1.70;;;42.60;1.00;;;;;;5008719;28;20228;-71
2022/05/17 12:47:00;;;;;;;3.22;2.10;;;42.70;1.00;;;;;;5008095;28;20631;-70
2022/05/17 12:49:31;;;;;;;3.38;1.70;;;42.80;1.00;;;;;;5009269;28;20170;-71
2022/05/17 12:51:59;;;;;;;4.13;1.70;;;42.90;1.00;;;;;;5027494;28;20263;-71
2022/05/17 12:54:31;;;;;;;3.58;2.00;;;42.80;1.00;;;;;;5042415;28;20211;-71
2022/05/17 12:56:58;;;;;;;6.70;1.90;;;43.00;1.00;;;;;;5045128;28;20189;-71
2022/05/17 12:59:27;;;;;;;7.43;2.10;;;43.50;1.00;;;;;;5048730;28;20175;-71
2022/05/17 13:01:59;;;;;;;3.85;1.70;;;44.20;1.00;;;;;;5047725;28;20182;-70
2022/05/17 13:04:26;;;;;;;6.32;1.88;;;43.60;1.00;;;;;;5048201;28;20171;-71
2022/05/17 13:07:02;;;;;;;3.42;1.80;;;42.90;1.00;;;;;;5035198;28;20209;-70
2022/05/17 13:09:28;;;;;;;2.78;1.80;;;43.00;1.00;;;;;;5027541;28;20177;-71
2022/05/17 13:11:56;;;;;;;3.53;1.70;;;43.10;1.00;;;;;;5026878;28;20172;-71
2022/05/17 13:14:22;;;;;;;3.22;1.70;;;43.90;1.00;;;;;;5026574;28;20170;-71